createdAt,value
2019-06-23T00:01:54.839Z,6.00
2019-06-23T00:04:23.746Z,5.60
2019-06-23T00:06:52.661Z,5.77
2019-06-23T00:09:21.555Z,6.83
2019-06-23T00:11:50.459Z,5.83
2019-06-23T00:14:19.373Z,6.43
2019-06-23T00:16:48.302Z,6.33
2019-06-23T00:19:17.222Z,6.27
2019-06-23T00:21:46.108Z,6.50
2019-06-23T00:24:15.034Z,6.60
2019-06-23T00:26:43.945Z,7.05
2019-06-23T00:29:12.836Z,6.40
2019-06-23T00:31:44.875Z,6.03
2019-06-23T00:34:13.793Z,6.30
2019-06-23T00:36:42.698Z,6.27
2019-06-23T00:39:11.599Z,6.23
2019-06-23T00:41:40.488Z,6.70
2019-06-23T00:44:09.444Z,6.20
2019-06-23T00:46:38.342Z,6.00
2019-06-23T00:49:07.322Z,6.57
2019-06-23T00:51:36.210Z,6.40
2019-06-23T00:54:05.109Z,6.80
2019-06-23T00:56:34.100Z,6.33
2019-06-23T00:59:02.988Z,6.70
2019-06-23T01:01:54.172Z,7.10
2019-06-23T01:04:23.081Z,6.37
2019-06-23T01:06:52.047Z,7.10
2019-06-23T01:09:20.945Z,6.63
2019-06-23T01:11:55.769Z,6.53
2019-06-23T01:14:25.139Z,7.03
2019-06-23T01:16:54.631Z,6.60
2019-06-23T01:19:23.555Z,6.57
2019-06-23T01:21:52.454Z,6.67
2019-06-23T01:24:21.393Z,6.40
2019-06-23T01:26:50.292Z,7.00
2019-06-23T01:29:19.211Z,6.97
2019-06-23T01:31:48.107Z,6.93
2019-06-23T01:34:24.531Z,6.80
2019-06-23T01:36:45.966Z,6.87
2019-06-23T01:39:14.865Z,6.57
2019-06-23T01:41:43.805Z,6.90
2019-06-23T01:44:12.740Z,7.40
2019-06-23T01:46:41.634Z,6.70
2019-06-23T01:49:10.855Z,6.80
2019-06-23T01:51:39.744Z,6.87
2019-06-23T01:54:08.685Z,6.70
2019-06-23T01:56:37.576Z,7.13
2019-06-23T01:59:06.498Z,7.10
2019-06-23T02:01:35.419Z,7.00
2019-06-23T02:04:04.315Z,6.67
2019-06-23T02:06:33.265Z,7.47
2019-06-23T02:09:02.172Z,7.10
2019-06-23T02:11:31.104Z,6.83
2019-06-23T02:14:00.003Z,6.90
2019-06-23T02:16:28.896Z,7.50
2019-06-23T02:18:57.825Z,7.40
2019-06-23T02:21:26.705Z,7.57
2019-06-23T02:23:55.614Z,7.60
2019-06-23T02:26:24.553Z,7.30
2019-06-23T02:28:53.435Z,7.57
2019-06-23T02:31:22.361Z,7.77
2019-06-23T02:33:51.245Z,7.20
2019-06-23T02:36:20.184Z,7.77
2019-06-23T02:38:50.651Z,7.70
2019-06-23T02:41:18.050Z,7.33
2019-06-23T02:43:46.932Z,7.73
2019-06-23T02:46:20.308Z,7.40
2019-06-23T02:48:50.606Z,7.70
2019-06-23T02:51:23.617Z,8.17
2019-06-23T02:53:57.641Z,7.90
2019-06-23T02:56:29.174Z,9.30
2019-06-23T02:59:00.018Z,8.00
2019-06-23T03:01:28.931Z,8.33
2019-06-23T03:03:57.861Z,7.87
2019-06-23T03:06:26.740Z,8.30
2019-06-23T03:08:55.641Z,9.07
2019-06-23T03:11:24.573Z,8.73
2019-06-23T03:13:53.505Z,8.00
2019-06-23T03:16:22.396Z,8.97
2019-06-23T03:18:51.298Z,8.43
2019-06-23T03:21:20.186Z,8.47
2019-06-23T03:23:49.099Z,8.37
2019-06-23T03:26:21.284Z,8.63
2019-06-23T03:28:50.182Z,7.97
2019-06-23T03:31:19.106Z,8.77
2019-06-23T03:33:48.030Z,9.50
2019-06-23T03:36:17.318Z,9.80
2019-06-23T03:38:46.617Z,8.87
2019-06-23T03:41:15.521Z,9.17
2019-06-23T03:43:44.418Z,9.10
2019-06-23T03:46:13.314Z,9.53
2019-06-23T03:48:42.208Z,9.43
2019-06-23T03:51:11.152Z,8.90
2019-06-23T03:53:40.060Z,9.20
2019-06-23T03:56:09.087Z,9.00
2019-06-23T03:58:38.023Z,9.50
2019-06-23T04:01:07.136Z,9.30
2019-06-23T04:03:36.040Z,9.03
2019-06-23T04:06:04.993Z,9.53
2019-06-23T04:08:33.943Z,9.80
2019-06-23T04:11:03.009Z,9.27
2019-06-23T04:13:31.915Z,9.73
2019-06-23T04:16:00.838Z,9.30
2019-06-23T04:18:29.727Z,9.43
2019-06-23T04:20:58.654Z,9.43
2019-06-23T04:23:27.558Z,9.40
2019-06-23T04:25:56.476Z,9.70
2019-06-23T04:28:25.443Z,9.10
2019-06-23T04:30:54.345Z,9.43
2019-06-23T04:33:23.231Z,9.43
2019-06-23T04:36:06.483Z,9.60
2019-06-23T04:38:21.074Z,9.17
2019-06-23T04:40:49.990Z,9.77
2019-06-23T04:43:18.899Z,9.80
2019-06-23T04:45:47.834Z,9.10
2019-06-23T04:48:16.754Z,9.47
2019-06-23T04:50:45.659Z,9.90
2019-06-23T04:53:14.595Z,9.93
2019-06-23T04:55:43.490Z,9.88
2019-06-23T04:58:12.370Z,9.63
2019-06-23T05:00:41.286Z,9.73
2019-06-23T05:03:10.216Z,9.20
2019-06-23T05:05:39.116Z,8.73
2019-06-23T05:08:08.141Z,9.00
2019-06-23T05:10:37.026Z,9.27
2019-06-23T05:13:05.945Z,9.40
2019-06-23T05:15:34.807Z,8.10
2019-06-23T05:18:03.708Z,8.90
2019-06-23T05:20:32.765Z,8.63
2019-06-23T05:23:01.536Z,8.30
2019-06-23T05:25:30.458Z,8.30
2019-06-23T05:27:59.357Z,8.63
2019-06-23T05:30:28.249Z,8.50
2019-06-23T05:32:57.149Z,8.28
2019-06-23T05:35:26.128Z,8.00
2019-06-23T05:37:54.957Z,7.60
2019-06-23T05:40:23.860Z,7.23
2019-06-23T05:42:52.794Z,6.87
2019-06-23T05:45:21.695Z,7.20
2019-06-23T05:47:50.581Z,6.87
2019-06-23T05:50:19.496Z,6.83
2019-06-23T05:52:48.384Z,6.70
2019-06-23T05:55:17.296Z,6.50
2019-06-23T05:57:46.197Z,6.20
2019-06-23T06:00:15.109Z,5.25
2019-06-23T06:02:44.007Z,6.90
2019-06-23T06:05:12.952Z,6.15
2019-06-23T06:07:41.886Z,6.33
2019-06-23T06:10:10.841Z,5.70
2019-06-23T06:12:39.752Z,6.03
2019-06-23T06:15:08.825Z,6.00
2019-06-23T06:17:37.712Z,5.53
2019-06-23T06:20:06.702Z,5.12
2019-06-23T06:22:35.801Z,5.78
2019-06-23T06:25:04.700Z,5.50
2019-06-23T06:27:33.600Z,5.37
2019-06-23T06:30:02.521Z,5.65
2019-06-23T06:32:31.468Z,6.30
2019-06-23T06:35:00.318Z,5.47
2019-06-23T06:37:29.225Z,5.12
2019-06-23T06:39:58.143Z,4.80
2019-06-23T06:42:27.038Z,5.10
2019-06-23T06:44:55.907Z,5.58
2019-06-23T06:47:24.814Z,4.90
2019-06-23T06:49:53.705Z,4.85
2019-06-23T06:52:22.598Z,4.85
2019-06-23T06:54:51.527Z,4.50
2019-06-23T06:57:20.424Z,4.53
2019-06-23T06:59:49.344Z,5.45
2019-06-23T07:02:18.235Z,4.92
2019-06-23T07:04:47.151Z,4.92
2019-06-23T07:07:26.372Z,4.87
2019-06-23T07:09:44.963Z,4.97
2019-06-23T07:12:13.865Z,4.90
2019-06-23T07:14:42.745Z,5.03
2019-06-23T07:17:11.646Z,4.92
2019-06-23T07:19:40.526Z,4.40
2019-06-23T07:22:09.456Z,5.10
2019-06-23T07:24:38.338Z,4.78
2019-06-23T07:27:07.350Z,4.05
2019-06-23T07:29:36.618Z,4.92
2019-06-23T07:32:05.582Z,4.28
2019-06-23T07:34:34.502Z,4.65
2019-06-23T07:37:03.396Z,4.80
2019-06-23T07:39:32.318Z,4.58
2019-06-23T07:42:01.207Z,4.75
2019-06-23T07:44:30.103Z,4.37
2019-06-23T07:46:58.999Z,4.42
2019-06-23T07:49:27.913Z,4.40
2019-06-23T07:51:56.879Z,5.10
2019-06-23T07:54:25.760Z,4.67
2019-06-23T07:56:54.595Z,4.17
2019-06-23T07:59:23.517Z,5.05
2019-06-23T08:01:52.439Z,4.80
2019-06-23T08:04:21.317Z,4.10
2019-06-23T08:06:50.244Z,4.70
2019-06-23T08:09:19.139Z,4.42
2019-06-23T08:11:48.042Z,4.87
2019-06-23T08:14:16.898Z,4.22
2019-06-23T08:16:45.804Z,4.65
2019-06-23T08:19:14.682Z,5.03
2019-06-23T08:21:43.600Z,5.10
2019-06-23T08:24:12.485Z,4.60
2019-06-23T08:26:41.391Z,4.90
2019-06-23T08:29:10.345Z,4.30
2019-06-23T08:31:39.265Z,4.92
2019-06-23T08:34:08.237Z,4.70
2019-06-23T08:36:37.175Z,4.47
2019-06-23T08:39:07.131Z,4.35
2019-06-23T08:41:39.023Z,4.33
2019-06-23T08:44:08.647Z,4.60
2019-06-23T08:46:43.449Z,4.83
2019-06-23T08:49:12.679Z,4.62
2019-06-23T08:51:41.969Z,4.37
2019-06-23T08:54:13.969Z,4.50
2019-06-23T08:56:43.097Z,3.83
2019-06-23T08:59:12.492Z,4.00
2019-06-23T09:01:41.748Z,4.50
2019-06-23T09:04:10.905Z,3.80
2019-06-23T09:06:42.573Z,3.90
2019-06-23T09:09:11.891Z,4.35
2019-06-23T09:11:44.347Z,4.60
2019-06-23T09:14:13.738Z,4.33
2019-06-23T09:16:45.404Z,4.50
2019-06-23T09:19:14.572Z,4.37
2019-06-23T09:21:43.740Z,4.30
2019-06-23T09:24:12.991Z,4.30
2019-06-23T09:26:44.949Z,4.15
2019-06-23T09:29:14.128Z,4.55
2019-06-23T09:31:43.368Z,4.35
2019-06-23T09:34:12.724Z,4.15
2019-06-23T09:36:44.840Z,3.98
2019-06-23T09:39:17.005Z,3.95
2019-06-23T09:41:46.153Z,3.75
2019-06-23T09:44:15.388Z,3.65
2019-06-23T09:46:44.413Z,3.80
2019-06-23T09:49:15.863Z,3.65
2019-06-23T09:51:44.953Z,3.83
2019-06-23T09:54:18.719Z,3.60
2019-06-23T09:56:47.297Z,3.58
2019-06-23T09:59:16.686Z,3.92
2019-06-23T10:01:45.932Z,3.60
2019-06-23T10:04:15.028Z,3.70
2019-06-23T10:06:44.265Z,4.00
2019-06-23T10:09:16.384Z,3.42
2019-06-23T10:11:45.584Z,3.37
2019-06-23T10:14:17.469Z,3.40
2019-06-23T10:16:46.651Z,3.27
2019-06-23T10:19:15.838Z,3.98
2019-06-23T10:21:45.177Z,3.50
2019-06-23T10:24:14.320Z,3.58
2019-06-23T10:26:45.172Z,3.47
2019-06-23T10:29:14.615Z,3.65
2019-06-23T10:31:43.983Z,3.20
2019-06-23T10:34:13.202Z,3.08
2019-06-23T10:36:48.051Z,3.72
2019-06-23T10:39:20.569Z,3.70
2019-06-23T10:41:47.521Z,3.80
2019-06-23T10:44:16.774Z,3.52
2019-06-23T10:46:46.030Z,3.33
2019-06-23T10:49:19.958Z,3.50
2019-06-23T10:51:47.174Z,3.58
2019-06-23T10:54:18.217Z,3.83
2019-06-23T10:56:47.167Z,4.03
2019-06-23T10:59:17.885Z,3.58
2019-06-23T11:01:47.018Z,3.58
2019-06-23T11:04:16.437Z,3.35
2019-06-23T11:06:45.715Z,2.95
2019-06-23T11:09:14.955Z,3.52
2019-06-23T11:11:44.055Z,3.27
2019-06-23T11:14:16.482Z,3.45
2019-06-23T11:16:45.788Z,3.95
2019-06-23T11:19:17.281Z,3.83
2019-06-23T11:21:48.736Z,3.70
2019-06-23T11:24:17.801Z,4.17
2019-06-23T11:26:46.966Z,3.83
2019-06-23T11:29:16.471Z,3.58
2019-06-23T11:31:48.350Z,3.80
2019-06-23T11:34:18.540Z,4.08
2019-06-23T11:36:47.910Z,3.77
2019-06-23T11:39:19.453Z,4.30
2019-06-23T11:41:53.919Z,4.25
2019-06-23T11:44:20.424Z,4.03
2019-06-23T11:46:50.958Z,4.15
2019-06-23T11:49:23.530Z,3.90
2019-06-23T11:51:49.347Z,3.83
2019-06-23T11:54:18.775Z,3.75
2019-06-23T11:56:47.921Z,4.03
2019-06-23T11:59:16.783Z,3.80
2019-06-23T12:01:45.682Z,3.58
2019-06-23T12:04:14.606Z,3.80
2019-06-23T12:06:43.495Z,3.50
2019-06-23T12:09:12.406Z,4.10
2019-06-23T12:11:41.287Z,4.00
2019-06-23T12:14:10.189Z,4.20
2019-06-23T12:16:39.174Z,3.83
2019-06-23T12:19:08.185Z,4.33
2019-06-23T12:21:37.061Z,4.10
2019-06-23T12:24:05.983Z,4.30
2019-06-23T12:26:34.904Z,3.85
2019-06-23T12:29:03.872Z,4.05
2019-06-23T12:31:32.749Z,3.72
2019-06-23T12:34:01.624Z,4.22
2019-06-23T12:36:30.536Z,4.20
2019-06-23T12:38:59.480Z,3.80
2019-06-23T12:41:28.380Z,4.10
2019-06-23T12:43:57.310Z,4.00
2019-06-23T12:46:26.218Z,4.10
2019-06-23T12:48:55.131Z,3.87
2019-06-23T12:51:24.030Z,4.25
2019-06-23T12:53:52.915Z,3.72
2019-06-23T12:56:21.869Z,3.80
2019-06-23T12:58:50.798Z,4.12
2019-06-23T13:01:19.701Z,4.03
2019-06-23T13:03:48.716Z,4.00
2019-06-23T13:06:17.621Z,4.15
2019-06-23T13:08:46.506Z,4.28
2019-06-23T13:11:15.397Z,4.45
2019-06-23T13:13:44.324Z,4.62
2019-06-23T13:16:13.271Z,4.50
2019-06-23T13:18:42.171Z,4.30
2019-06-23T13:21:11.054Z,4.22
2019-06-23T13:23:40.405Z,4.33
2019-06-23T13:26:09.965Z,4.55
2019-06-23T13:28:39.061Z,4.80
2019-06-23T13:31:10.052Z,4.40
2019-06-23T13:33:49.780Z,4.50
2019-06-23T13:36:23.631Z,4.45
2019-06-23T13:38:48.116Z,5.00
2019-06-23T13:41:17.212Z,4.53
2019-06-23T13:43:48.726Z,4.97
2019-06-23T13:46:18.169Z,4.90
2019-06-23T13:48:47.542Z,5.03
2019-06-23T13:51:17.111Z,4.95
2019-06-23T13:53:48.305Z,4.70
2019-06-23T13:56:15.537Z,4.67
2019-06-23T13:58:44.611Z,4.72
2019-06-23T14:01:14.858Z,4.97
2019-06-23T14:03:47.266Z,5.08
2019-06-23T14:06:16.292Z,5.10
2019-06-23T14:08:47.658Z,5.03
2019-06-23T14:11:17.276Z,4.92
2019-06-23T14:13:46.517Z,5.17
2019-06-23T14:16:18.718Z,5.28
2019-06-23T14:18:50.067Z,5.25
2019-06-23T14:21:19.245Z,5.42
2019-06-23T14:23:53.786Z,7.50
2019-06-23T14:26:23.043Z,5.20
2019-06-23T14:28:54.689Z,5.37
2019-06-23T14:31:23.942Z,5.53
2019-06-23T14:33:52.984Z,5.72
2019-06-23T14:36:27.656Z,5.17
2019-06-23T14:38:56.786Z,5.55
2019-06-23T14:41:29.031Z,5.95
2019-06-23T14:43:55.073Z,5.20
2019-06-23T14:46:26.797Z,5.10
2019-06-23T14:48:56.030Z,6.17
2019-06-23T14:51:27.471Z,5.30
2019-06-23T14:53:57.215Z,5.35
2019-06-23T14:56:26.418Z,5.20
2019-06-23T14:58:55.532Z,5.12
2019-06-23T15:01:31.131Z,5.30
2019-06-23T15:04:00.523Z,4.97
2019-06-23T15:06:32.397Z,5.00
2019-06-23T15:09:01.520Z,5.60
2019-06-23T15:11:43.680Z,5.53
2019-06-23T15:13:59.538Z,5.22
2019-06-23T15:16:28.528Z,4.97
2019-06-23T15:18:57.557Z,5.15
2019-06-23T15:21:29.151Z,5.60
2019-06-23T15:23:59.228Z,5.33
2019-06-23T15:26:28.658Z,4.53
2019-06-23T15:28:57.847Z,4.20
2019-06-23T15:31:27.041Z,4.00
2019-06-23T15:33:56.111Z,4.20
2019-06-23T15:36:25.355Z,4.22
2019-06-23T15:38:54.747Z,4.00
2019-06-23T15:41:24.014Z,4.00
2019-06-23T15:43:53.244Z,3.80
2019-06-23T15:46:26.212Z,4.08
2019-06-23T15:48:51.437Z,4.03
2019-06-23T15:51:20.787Z,4.15
2019-06-23T15:53:50.378Z,4.30
2019-06-23T15:56:19.466Z,4.30
2019-06-23T15:58:49.428Z,3.62
2019-06-23T16:01:23.823Z,4.20
2019-06-23T16:03:55.184Z,3.80
2019-06-23T16:06:24.347Z,3.52
2019-06-23T16:08:53.277Z,4.00
2019-06-23T16:11:22.158Z,4.00
2019-06-23T16:13:51.048Z,4.10
2019-06-23T16:16:19.967Z,3.62
2019-06-23T16:18:48.873Z,3.87
2019-06-23T16:21:17.782Z,4.08
2019-06-23T16:23:46.690Z,3.98
2019-06-23T16:26:15.578Z,3.75
2019-06-23T16:28:44.512Z,4.22
2019-06-23T16:31:13.378Z,3.58
2019-06-23T16:33:42.301Z,3.65
2019-06-23T16:36:11.186Z,3.85
2019-06-23T16:38:40.102Z,4.08
2019-06-23T16:41:09.054Z,3.75
2019-06-23T16:43:37.972Z,3.80
2019-06-23T16:46:06.989Z,3.77
2019-06-23T16:48:35.907Z,4.17
2019-06-23T16:51:05.658Z,4.00
2019-06-23T16:53:34.530Z,3.70
2019-06-23T16:56:03.435Z,3.62
2019-06-23T16:58:32.353Z,4.20
2019-06-23T17:01:01.257Z,3.30
2019-06-23T17:03:30.126Z,3.95
2019-06-23T17:05:59.056Z,3.85
2019-06-23T17:08:27.957Z,3.87
2019-06-23T17:10:56.839Z,3.72
2019-06-23T17:13:25.748Z,3.65
2019-06-23T17:15:54.656Z,4.15
2019-06-23T17:18:23.569Z,3.77
2019-06-23T17:20:52.452Z,4.03
2019-06-23T17:23:21.368Z,4.00
2019-06-23T17:25:50.453Z,3.47
2019-06-23T17:28:19.358Z,3.77
2019-06-23T17:30:48.262Z,3.77
2019-06-23T17:33:17.167Z,3.70
2019-06-23T17:35:46.050Z,3.50
2019-06-23T17:38:14.927Z,4.00
2019-06-23T17:40:43.859Z,3.65
2019-06-23T17:43:14.695Z,3.40
2019-06-23T17:45:41.655Z,3.55
2019-06-23T17:48:10.593Z,3.80
2019-06-23T17:50:39.520Z,3.80
2019-06-23T17:53:08.451Z,3.90
2019-06-23T17:55:37.356Z,3.55
2019-06-23T17:58:06.362Z,3.62
2019-06-23T18:00:35.268Z,3.58
2019-06-23T18:03:04.252Z,3.60
2019-06-23T18:05:33.155Z,3.30
2019-06-23T18:08:02.069Z,3.77
2019-06-23T18:10:30.961Z,3.75
2019-06-23T18:12:59.862Z,3.60
2019-06-23T18:15:28.768Z,3.40
2019-06-23T18:17:57.678Z,3.60
2019-06-23T18:20:26.551Z,3.62
2019-06-23T18:22:55.464Z,4.20
2019-06-23T18:25:24.350Z,3.55
2019-06-23T18:27:53.260Z,3.52
2019-06-23T18:30:22.140Z,3.90
2019-06-23T18:32:51.204Z,3.70
2019-06-23T18:35:21.090Z,3.90
2019-06-23T18:37:49.927Z,3.52
2019-06-23T18:40:18.882Z,3.25
2019-06-23T18:42:47.775Z,3.17
2019-06-23T18:45:16.690Z,3.40
2019-06-23T18:47:46.420Z,3.60
2019-06-23T18:50:15.740Z,3.60
2019-06-23T18:52:44.631Z,3.75
2019-06-23T18:55:14.168Z,3.50
2019-06-23T18:57:43.043Z,3.70
2019-06-23T19:00:11.921Z,3.72
2019-06-23T19:02:40.800Z,3.75
2019-06-23T19:05:09.840Z,3.80
2019-06-23T19:07:38.748Z,3.80
2019-06-23T19:10:07.747Z,3.35
2019-06-23T19:12:36.632Z,3.60
2019-06-23T19:15:06.032Z,3.62
2019-06-23T19:17:34.918Z,3.50
2019-06-23T19:20:04.226Z,3.72
2019-06-23T19:22:33.118Z,3.50
2019-06-23T19:25:02.048Z,3.65
2019-06-23T19:27:30.952Z,3.60
2019-06-23T19:29:59.857Z,3.50
2019-06-23T19:32:31.012Z,3.45
2019-06-23T19:34:57.718Z,3.75
2019-06-23T19:37:26.603Z,3.40
2019-06-23T19:39:55.499Z,3.55
2019-06-23T19:42:24.386Z,3.30
2019-06-23T19:44:53.350Z,3.45
2019-06-23T19:47:22.157Z,3.30
2019-06-23T19:49:51.061Z,3.67
2019-06-23T19:52:19.965Z,3.52
2019-06-23T19:54:48.853Z,3.37
2019-06-23T19:57:17.736Z,3.50
2019-06-23T19:59:48.658Z,3.60
2019-06-23T20:02:15.570Z,3.40
2019-06-23T20:04:44.452Z,3.55
2019-06-23T20:07:13.333Z,3.47
2019-06-23T20:09:42.244Z,3.45
2019-06-23T20:12:11.124Z,3.50
2019-06-23T20:14:40.040Z,3.00
2019-06-23T20:17:08.958Z,3.55
2019-06-23T20:19:37.864Z,3.80
2019-06-23T20:22:06.836Z,3.30
2019-06-23T20:24:35.748Z,3.75
2019-06-23T20:27:04.655Z,3.47
2019-06-23T20:29:33.570Z,3.37
2019-06-23T20:32:02.568Z,3.55
2019-06-23T20:34:31.391Z,3.60
2019-06-23T20:37:00.309Z,3.42
2019-06-23T20:39:29.186Z,3.60
2019-06-23T20:41:58.062Z,3.35
2019-06-23T20:44:41.286Z,3.52
2019-06-23T20:46:55.886Z,3.60
2019-06-23T20:49:24.764Z,3.67
2019-06-23T20:51:53.705Z,3.45
2019-06-23T20:54:22.603Z,3.65
2019-06-23T20:56:51.551Z,3.22
2019-06-23T20:59:20.468Z,3.70
2019-06-23T21:01:49.348Z,3.60
2019-06-23T21:04:18.264Z,3.42
2019-06-23T21:06:47.154Z,3.65
2019-06-23T21:09:16.056Z,3.87
2019-06-23T21:11:44.946Z,4.22
2019-06-23T21:14:13.897Z,4.53
2019-06-23T21:16:42.813Z,4.45
2019-06-23T21:19:11.725Z,4.08
2019-06-23T21:21:40.614Z,4.03
2019-06-23T21:24:09.535Z,3.70
2019-06-23T21:26:38.412Z,3.95
2019-06-23T21:29:07.341Z,4.60
2019-06-23T21:31:36.233Z,4.25
2019-06-23T21:34:05.146Z,4.42
2019-06-23T21:36:34.029Z,4.10
2019-06-23T21:39:02.990Z,4.20
2019-06-23T21:41:31.867Z,3.85
2019-06-23T21:44:00.773Z,4.28
2019-06-23T21:46:29.702Z,3.60
2019-06-23T21:48:58.583Z,3.52
2019-06-23T21:51:27.451Z,3.85
2019-06-23T21:53:56.362Z,3.70
2019-06-23T21:56:25.271Z,4.17
2019-06-23T21:58:54.178Z,4.05
2019-06-23T22:01:23.081Z,3.77
2019-06-23T22:03:51.993Z,3.70
2019-06-23T22:06:20.920Z,3.95
2019-06-23T22:08:49.781Z,3.62
2019-06-23T22:11:18.653Z,3.75
2019-06-23T22:13:47.563Z,3.75
2019-06-23T22:16:16.447Z,3.55
2019-06-23T22:18:45.347Z,3.87
2019-06-23T22:21:14.227Z,3.70
2019-06-23T22:23:43.131Z,3.90
2019-06-23T22:26:12.040Z,3.52
2019-06-23T22:28:40.908Z,3.67
2019-06-23T22:31:09.854Z,3.85
2019-06-23T22:33:38.762Z,3.50
2019-06-23T22:36:07.760Z,3.90
2019-06-23T22:38:36.697Z,3.70
2019-06-23T22:41:05.628Z,3.90
2019-06-23T22:43:34.593Z,3.70
2019-06-23T22:46:03.445Z,3.70
2019-06-23T22:48:32.352Z,3.45
2019-06-23T22:51:01.272Z,3.30
2019-06-23T22:53:30.175Z,3.80
2019-06-23T22:55:59.063Z,3.67
2019-06-23T22:58:27.968Z,3.70
2019-06-23T23:00:56.860Z,3.40
2019-06-23T23:03:25.760Z,3.40
2019-06-23T23:05:54.649Z,3.40
2019-06-23T23:08:23.666Z,3.10
2019-06-23T23:10:52.479Z,3.75
2019-06-23T23:13:21.355Z,3.33
2019-06-23T23:16:03.183Z,3.50
2019-06-23T23:18:19.161Z,3.75
2019-06-23T23:20:48.048Z,3.50
2019-06-23T23:23:16.944Z,3.77
2019-06-23T23:25:45.867Z,3.60
2019-06-23T23:28:14.752Z,3.30
2019-06-23T23:30:43.654Z,3.67
2019-06-23T23:33:12.531Z,3.27
2019-06-23T23:35:41.437Z,3.60
2019-06-23T23:38:10.318Z,3.40
2019-06-23T23:40:39.251Z,3.50
2019-06-23T23:43:08.163Z,3.40
2019-06-23T23:45:37.053Z,3.45
2019-06-23T23:48:06.033Z,3.67
2019-06-23T23:50:34.907Z,3.55
2019-06-23T23:53:03.824Z,3.40
2019-06-23T23:55:32.714Z,3.33
2019-06-23T23:58:01.594Z,3.35
